sensor_id;sensor_type;location;lat;lon;timestamp;P1;durP1;ratioP1;P2;durP2;ratioP2
1691;SDS011;843;52.054;8.552;2023-04-06T00:02:17;9.27;;;8.33;;
1691;SDS011;843;52.054;8.552;2023-04-06T00:04:45;13.23;;;9.70;;
1691;SDS011;843;52.054;8.552;2023-04-06T00:07:12;10.63;;;9.20;;
1691;SDS011;843;52.054;8.552;2023-04-06T00:09:38;10.13;;;8.70;;
1691;SDS011;843;52.054;8.552;2023-04-06T00:12:05;11.20;;;8.80;;
1691;SDS011;843;52.054;8.552;2023-04-06T00:14:32;10.27;;;8.77;;
1691;SDS011;843;52.054;8.552;2023-04-06T00:16:59;11.67;;;9.60;;
1691;SDS011;843;52.054;8.552;2023-04-06T00:19:26;14.13;;;9.37;;
1691;SDS011;843;52.054;8.552;2023-04-06T00:21:54;14.33;;;9.80;;
1691;SDS011;843;52.054;8.552;2023-04-06T00:24:21;13.60;;;8.93;;
1691;SDS011;843;52.054;8.552;2023-04-06T00:26:48;14.27;;;9.07;;
1691;SDS011;843;52.054;8.552;2023-04-06T00:29:14;10.50;;;8.30;;
1691;SDS011;843;52.054;8.552;2023-04-06T00:31:41;15.13;;;9.37;;
1691;SDS011;843;52.054;8.552;2023-04-06T00:34:09;13.70;;;9.60;;
1691;SDS011;843;52.054;8.552;2023-04-06T00:36:35;12.03;;;9.60;;
1691;SDS011;843;52.054;8.552;2023-04-06T00:39:03;12.47;;;8.50;;
1691;SDS011;843;52.054;8.552;2023-04-06T00:41:30;16.67;;;10.57;;
1691;SDS011;843;52.054;8.552;2023-04-06T00:43:57;13.00;;;9.67;;
1691;SDS011;843;52.054;8.552;2023-04-06T00:46:24;11.43;;;8.83;;
1691;SDS011;843;52.054;8.552;2023-04-06T00:48:51;11.33;;;9.07;;
1691;SDS011;843;52.054;8.552;2023-04-06T00:51:17;11.10;;;8.57;;
1691;SDS011;843;52.054;8.552;2023-04-06T00:53:44;10.53;;;9.13;;
1691;SDS011;843;52.054;8.552;2023-04-06T00:56:12;10.93;;;9.30;;
1691;SDS011;843;52.054;8.552;2023-04-06T00:58:39;12.03;;;8.90;;
1691;SDS011;843;52.054;8.552;2023-04-06T01:01:06;12.20;;;8.83;;
1691;SDS011;843;52.054;8.552;2023-04-06T01:03:32;11.47;;;9.03;;
1691;SDS011;843;52.054;8.552;2023-04-06T01:05:59;11.73;;;8.53;;
1691;SDS011;843;52.054;8.552;2023-04-06T01:08:26;10.50;;;8.57;;
1691;SDS011;843;52.054;8.552;2023-04-06T01:10:53;11.17;;;9.30;;
1691;SDS011;843;52.054;8.552;2023-04-06T01:13:21;12.77;;;9.40;;
1691;SDS011;843;52.054;8.552;2023-04-06T01:15:48;11.10;;;9.10;;
1691;SDS011;843;52.054;8.552;2023-04-06T01:18:15;17.03;;;8.90;;
1691;SDS011;843;52.054;8.552;2023-04-06T01:20:41;13.10;;;9.00;;
1691;SDS011;843;52.054;8.552;2023-04-06T01:23:09;11.83;;;9.17;;
1691;SDS011;843;52.054;8.552;2023-04-06T01:25:36;10.70;;;8.53;;
1691;SDS011;843;52.054;8.552;2023-04-06T01:28:03;12.53;;;9.20;;
1691;SDS011;843;52.054;8.552;2023-04-06T01:30:30;10.10;;;8.10;;
1691;SDS011;843;52.054;8.552;2023-04-06T01:32:56;11.10;;;8.70;;
1691;SDS011;843;52.054;8.552;2023-04-06T01:35:25;11.00;;;9.00;;
1691;SDS011;843;52.054;8.552;2023-04-06T01:37:52;11.90;;;9.00;;
1691;SDS011;843;52.054;8.552;2023-04-06T01:40:20;9.47;;;8.53;;
1691;SDS011;843;52.054;8.552;2023-04-06T01:42:47;12.80;;;9.33;;
1691;SDS011;843;52.054;8.552;2023-04-06T01:45:13;10.80;;;8.90;;
1691;SDS011;843;52.054;8.552;2023-04-06T01:47:40;9.60;;;8.50;;
1691;SDS011;843;52.054;8.552;2023-04-06T01:50:07;17.37;;;9.03;;
1691;SDS011;843;52.054;8.552;2023-04-06T01:52:35;11.80;;;8.60;;
1691;SDS011;843;52.054;8.552;2023-04-06T01:55:02;11.10;;;8.10;;
1691;SDS011;843;52.054;8.552;2023-04-06T01:57:30;10.60;;;8.77;;
1691;SDS011;843;52.054;8.552;2023-04-06T01:59:57;11.13;;;8.77;;
1691;SDS011;843;52.054;8.552;2023-04-06T02:02:23;17.67;;;11.10;;
1691;SDS011;843;52.054;8.552;2023-04-06T02:04:50;13.73;;;9.60;;
1691;SDS011;843;52.054;8.552;2023-04-06T02:07:17;12.50;;;9.57;;
1691;SDS011;843;52.054;8.552;2023-04-06T02:09:43;11.13;;;9.33;;
1691;SDS011;843;52.054;8.552;2023-04-06T02:12:10;13.07;;;9.93;;
1691;SDS011;843;52.054;8.552;2023-04-06T02:14:38;12.17;;;9.80;;
1691;SDS011;843;52.054;8.552;2023-04-06T02:17:05;12.13;;;9.17;;
1691;SDS011;843;52.054;8.552;2023-04-06T02:19:32;10.40;;;8.80;;
1691;SDS011;843;52.054;8.552;2023-04-06T02:21:58;11.17;;;9.27;;
1691;SDS011;843;52.054;8.552;2023-04-06T02:24:25;12.67;;;9.37;;
1691;SDS011;843;52.054;8.552;2023-04-06T02:26:52;13.77;;;10.00;;
1691;SDS011;843;52.054;8.552;2023-04-06T02:29:18;12.10;;;10.23;;
1691;SDS011;843;52.054;8.552;2023-04-06T02:31:46;11.87;;;8.60;;
1691;SDS011;843;52.054;8.552;2023-04-06T02:34:13;16.00;;;8.90;;
1691;SDS011;843;52.054;8.552;2023-04-06T02:36:42;12.50;;;8.80;;
1691;SDS011;843;52.054;8.552;2023-04-06T02:39:09;9.87;;;8.30;;
1691;SDS011;843;52.054;8.552;2023-04-06T02:41:36;10.70;;;9.10;;
1691;SDS011;843;52.054;8.552;2023-04-06T02:44:03;19.60;;;8.73;;
1691;SDS011;843;52.054;8.552;2023-04-06T02:46:30;13.93;;;9.00;;
1691;SDS011;843;52.054;8.552;2023-04-06T02:48:58;12.73;;;8.90;;
1691;SDS011;843;52.054;8.552;2023-04-06T02:51:26;10.90;;;9.40;;
1691;SDS011;843;52.054;8.552;2023-04-06T02:53:53;11.67;;;8.80;;
1691;SDS011;843;52.054;8.552;2023-04-06T02:56:20;12.03;;;8.67;;
1691;SDS011;843;52.054;8.552;2023-04-06T02:58:46;12.73;;;8.80;;
1691;SDS011;843;52.054;8.552;2023-04-06T03:01:13;12.77;;;9.03;;
1691;SDS011;843;52.054;8.552;2023-04-06T03:03:40;13.53;;;8.90;;
1691;SDS011;843;52.054;8.552;2023-04-06T03:06:08;18.47;;;9.33;;
1691;SDS011;843;52.054;8.552;2023-04-06T03:08:35;8.60;;;7.80;;
1691;SDS011;843;52.054;8.552;2023-04-06T03:11:01;11.33;;;8.60;;
1691;SDS011;843;52.054;8.552;2023-04-06T03:13:28;9.70;;;8.70;;
1691;SDS011;843;52.054;8.552;2023-04-06T03:15:55;13.50;;;8.50;;
1691;SDS011;843;52.054;8.552;2023-04-06T03:18:22;12.10;;;9.33;;
1691;SDS011;843;52.054;8.552;2023-04-06T03:20:49;9.97;;;8.73;;
1691;SDS011;843;52.054;8.552;2023-04-06T03:23:20;12.83;;;8.80;;
1691;SDS011;843;52.054;8.552;2023-04-06T03:25:46;11.10;;;8.40;;
1691;SDS011;843;52.054;8.552;2023-04-06T03:28:13;12.40;;;8.47;;
1691;SDS011;843;52.054;8.552;2023-04-06T03:30:41;12.40;;;9.47;;
1691;SDS011;843;52.054;8.552;2023-04-06T03:33:07;17.10;;;8.77;;
1691;SDS011;843;52.054;8.552;2023-04-06T03:35:34;16.33;;;9.23;;
1691;SDS011;843;52.054;8.552;2023-04-06T03:38:01;14.70;;;9.87;;
1691;SDS011;843;52.054;8.552;2023-04-06T03:40:30;9.80;;;8.80;;
1691;SDS011;843;52.054;8.552;2023-04-06T03:42:56;18.20;;;9.30;;
1691;SDS011;843;52.054;8.552;2023-04-06T03:45:23;15.93;;;9.70;;
1691;SDS011;843;52.054;8.552;2023-04-06T03:47:50;11.57;;;9.60;;
1691;SDS011;843;52.054;8.552;2023-04-06T03:50:17;10.77;;;8.77;;
1691;SDS011;843;52.054;8.552;2023-04-06T03:52:43;12.00;;;8.87;;
1691;SDS011;843;52.054;8.552;2023-04-06T03:55:10;13.53;;;9.07;;
1691;SDS011;843;52.054;8.552;2023-04-06T03:57:38;11.47;;;9.13;;
1691;SDS011;843;52.054;8.552;2023-04-06T04:00:06;12.70;;;9.57;;
1691;SDS011;843;52.054;8.552;2023-04-06T04:02:34;14.87;;;9.33;;
1691;SDS011;843;52.054;8.552;2023-04-06T04:05:00;10.00;;;8.40;;
1691;SDS011;843;52.054;8.552;2023-04-06T04:07:27;12.57;;;9.27;;
1691;SDS011;843;52.054;8.552;2023-04-06T04:09:54;12.30;;;8.90;;
1691;SDS011;843;52.054;8.552;2023-04-06T04:12:21;13.37;;;9.23;;
1691;SDS011;843;52.054;8.552;2023-04-06T04:14:49;13.20;;;8.60;;
1691;SDS011;843;52.054;8.552;2023-04-06T04:17:16;9.47;;;8.47;;
1691;SDS011;843;52.054;8.552;2023-04-06T04:19:42;10.30;;;7.93;;
1691;SDS011;843;52.054;8.552;2023-04-06T04:22:09;9.77;;;8.57;;
1691;SDS011;843;52.054;8.552;2023-04-06T04:24:36;14.53;;;10.57;;
1691;SDS011;843;52.054;8.552;2023-04-06T04:27:03;12.50;;;9.47;;
1691;SDS011;843;52.054;8.552;2023-04-06T04:29:29;14.07;;;10.00;;
1691;SDS011;843;52.054;8.552;2023-04-06T04:31:58;13.27;;;10.57;;
1691;SDS011;843;52.054;8.552;2023-04-06T04:34:24;13.93;;;9.30;;
1691;SDS011;843;52.054;8.552;2023-04-06T04:36:51;11.30;;;8.87;;
1691;SDS011;843;52.054;8.552;2023-04-06T04:39:18;11.73;;;10.20;;
1691;SDS011;843;52.054;8.552;2023-04-06T04:41:45;11.53;;;9.30;;
1691;SDS011;843;52.054;8.552;2023-04-06T04:44:12;9.97;;;8.97;;
1691;SDS011;843;52.054;8.552;2023-04-06T04:46:38;13.57;;;10.47;;
1691;SDS011;843;52.054;8.552;2023-04-06T04:49:07;14.17;;;9.80;;
1691;SDS011;843;52.054;8.552;2023-04-06T04:51:34;11.30;;;9.63;;
1691;SDS011;843;52.054;8.552;2023-04-06T04:54:04;13.00;;;10.03;;
1691;SDS011;843;52.054;8.552;2023-04-06T04:56:31;15.67;;;11.50;;
1691;SDS011;843;52.054;8.552;2023-04-06T04:58:57;16.53;;;10.90;;
1691;SDS011;843;52.054;8.552;2023-04-06T05:01:24;13.90;;;11.40;;
1691;SDS011;843;52.054;8.552;2023-04-06T05:03:51;16.50;;;12.07;;
1691;SDS011;843;52.054;8.552;2023-04-06T05:06:19;14.60;;;11.20;;
1691;SDS011;843;52.054;8.552;2023-04-06T05:08:46;12.60;;;10.53;;
1691;SDS011;843;52.054;8.552;2023-04-06T05:11:12;17.23;;;11.60;;
1691;SDS011;843;52.054;8.552;2023-04-06T05:13:39;19.60;;;13.07;;
1691;SDS011;843;52.054;8.552;2023-04-06T05:16:06;14.57;;;11.97;;
1691;SDS011;843;52.054;8.552;2023-04-06T05:18:33;16.17;;;13.00;;
1691;SDS011;843;52.054;8.552;2023-04-06T05:20:59;17.10;;;12.40;;
1691;SDS011;843;52.054;8.552;2023-04-06T05:23:28;14.30;;;11.80;;
1691;SDS011;843;52.054;8.552;2023-04-06T05:25:55;15.77;;;11.30;;
1691;SDS011;843;52.054;8.552;2023-04-06T05:28:21;10.97;;;9.87;;
1691;SDS011;843;52.054;8.552;2023-04-06T05:30:48;12.80;;;9.60;;
1691;SDS011;843;52.054;8.552;2023-04-06T05:33:15;12.00;;;9.50;;
1691;SDS011;843;52.054;8.552;2023-04-06T05:35:42;11.07;;;9.87;;
1691;SDS011;843;52.054;8.552;2023-04-06T05:38:08;14.10;;;9.50;;
1691;SDS011;843;52.054;8.552;2023-04-06T05:40:37;10.60;;;9.30;;
1691;SDS011;843;52.054;8.552;2023-04-06T05:43:06;12.40;;;10.47;;
1691;SDS011;843;52.054;8.552;2023-04-06T05:45:32;12.13;;;9.07;;
1691;SDS011;843;52.054;8.552;2023-04-06T05:48:00;12.00;;;9.10;;
1691;SDS011;843;52.054;8.552;2023-04-06T05:50:27;11.53;;;8.80;;
1691;SDS011;843;52.054;8.552;2023-04-06T05:52:53;9.70;;;8.70;;
1691;SDS011;843;52.054;8.552;2023-04-06T05:55:20;10.33;;;9.07;;
1691;SDS011;843;52.054;8.552;2023-04-06T05:57:48;10.00;;;9.03;;
1691;SDS011;843;52.054;8.552;2023-04-06T06:00:15;11.80;;;9.13;;
1691;SDS011;843;52.054;8.552;2023-04-06T06:02:45;12.03;;;8.97;;
1691;SDS011;843;52.054;8.552;2023-04-06T06:05:12;9.80;;;8.90;;
1691;SDS011;843;52.054;8.552;2023-04-06T06:07:39;9.20;;;8.30;;
1691;SDS011;843;52.054;8.552;2023-04-06T06:10:07;9.93;;;8.20;;
1691;SDS011;843;52.054;8.552;2023-04-06T06:12:34;13.60;;;10.13;;
1691;SDS011;843;52.054;8.552;2023-04-06T06:15:03;9.83;;;8.73;;
1691;SDS011;843;52.054;8.552;2023-04-06T06:17:30;9.27;;;8.30;;
1691;SDS011;843;52.054;8.552;2023-04-06T06:19:57;8.33;;;7.50;;
1691;SDS011;843;52.054;8.552;2023-04-06T06:22:24;10.37;;;9.10;;
1691;SDS011;843;52.054;8.552;2023-04-06T06:24:50;10.60;;;9.40;;
1691;SDS011;843;52.054;8.552;2023-04-06T06:27:17;9.40;;;8.47;;
1691;SDS011;843;52.054;8.552;2023-04-06T06:29:44;10.20;;;8.83;;
1691;SDS011;843;52.054;8.552;2023-04-06T06:32:12;8.90;;;8.00;;
1691;SDS011;843;52.054;8.552;2023-04-06T06:34:39;10.63;;;9.17;;
1691;SDS011;843;52.054;8.552;2023-04-06T06:37:06;13.00;;;9.27;;
1691;SDS011;843;52.054;8.552;2023-04-06T06:39:32;10.57;;;8.90;;
1691;SDS011;843;52.054;8.552;2023-04-06T06:41:59;11.00;;;9.43;;
1691;SDS011;843;52.054;8.552;2023-04-06T06:44:26;11.70;;;8.40;;
1691;SDS011;843;52.054;8.552;2023-04-06T06:46:53;13.13;;;9.17;;
1691;SDS011;843;52.054;8.552;2023-04-06T06:49:21;9.27;;;8.37;;
1691;SDS011;843;52.054;8.552;2023-04-06T06:51:48;9.20;;;8.30;;
1691;SDS011;843;52.054;8.552;2023-04-06T06:54:15;9.30;;;8.40;;
1691;SDS011;843;52.054;8.552;2023-04-06T06:56:41;9.90;;;8.90;;
1691;SDS011;843;52.054;8.552;2023-04-06T06:59:08;9.30;;;7.53;;
1691;SDS011;843;52.054;8.552;2023-04-06T07:01:35;10.50;;;8.97;;
1691;SDS011;843;52.054;8.552;2023-04-06T07:04:02;13.80;;;9.30;;
1691;SDS011;843;52.054;8.552;2023-04-06T07:06:31;15.23;;;8.13;;
1691;SDS011;843;52.054;8.552;2023-04-06T07:08:58;8.90;;;7.47;;
1691;SDS011;843;52.054;8.552;2023-04-06T07:11:24;12.60;;;9.40;;
1691;SDS011;843;52.054;8.552;2023-04-06T07:13:51;13.03;;;8.03;;
1691;SDS011;843;52.054;8.552;2023-04-06T07:16:18;11.10;;;9.10;;
1691;SDS011;843;52.054;8.552;2023-04-06T07:18:44;8.77;;;7.77;;
1691;SDS011;843;52.054;8.552;2023-04-06T07:21:11;12.03;;;9.50;;
1691;SDS011;843;52.054;8.552;2023-04-06T07:23:39;13.13;;;8.30;;
1691;SDS011;843;52.054;8.552;2023-04-06T07:26:06;9.80;;;8.27;;
1691;SDS011;843;52.054;8.552;2023-04-06T07:28:33;11.10;;;8.27;;
1691;SDS011;843;52.054;8.552;2023-04-06T07:31:00;12.10;;;9.30;;
1691;SDS011;843;52.054;8.552;2023-04-06T07:33:26;11.87;;;9.27;;
1691;SDS011;843;52.054;8.552;2023-04-06T07:35:55;11.90;;;9.60;;
1691;SDS011;843;52.054;8.552;2023-04-06T07:38:21;13.97;;;8.10;;
1691;SDS011;843;52.054;8.552;2023-04-06T07:40:50;9.80;;;8.80;;
1691;SDS011;843;52.054;8.552;2023-04-06T07:43:16;11.27;;;9.10;;
1691;SDS011;843;52.054;8.552;2023-04-06T07:45:43;9.50;;;8.50;;
1691;SDS011;843;52.054;8.552;2023-04-06T07:48:10;10.60;;;8.73;;
1691;SDS011;843;52.054;8.552;2023-04-06T07:50:37;11.10;;;9.20;;
1691;SDS011;843;52.054;8.552;2023-04-06T07:53:04;10.03;;;8.57;;
1691;SDS011;843;52.054;8.552;2023-04-06T07:55:31;10.03;;;8.13;;
1691;SDS011;843;52.054;8.552;2023-04-06T07:57:59;13.43;;;9.17;;
1691;SDS011;843;52.054;8.552;2023-04-06T08:00:26;9.37;;;8.40;;
1691;SDS011;843;52.054;8.552;2023-04-06T08:02:53;9.23;;;8.10;;
1691;SDS011;843;52.054;8.552;2023-04-06T08:05:20;11.20;;;8.80;;
1691;SDS011;843;52.054;8.552;2023-04-06T08:07:49;11.50;;;8.97;;
1691;SDS011;843;52.054;8.552;2023-04-06T08:10:16;10.00;;;9.00;;
1691;SDS011;843;52.054;8.552;2023-04-06T08:12:43;10.53;;;9.43;;
1691;SDS011;843;52.054;8.552;2023-04-06T08:15:11;9.57;;;8.67;;
1691;SDS011;843;52.054;8.552;2023-04-06T08:17:38;8.80;;;7.70;;
1691;SDS011;843;52.054;8.552;2023-04-06T08:20:05;9.07;;;7.87;;
1691;SDS011;843;52.054;8.552;2023-04-06T08:22:35;8.90;;;7.90;;
1691;SDS011;843;52.054;8.552;2023-04-06T08:25:02;10.87;;;8.40;;
1691;SDS011;843;52.054;8.552;2023-04-06T08:27:29;9.93;;;8.53;;
1691;SDS011;843;52.054;8.552;2023-04-06T08:29:56;12.90;;;8.90;;
1691;SDS011;843;52.054;8.552;2023-04-06T08:32:24;8.77;;;7.87;;
1691;SDS011;843;52.054;8.552;2023-04-06T08:34:53;9.37;;;8.33;;
1691;SDS011;843;52.054;8.552;2023-04-06T08:37:20;9.43;;;8.53;;
1691;SDS011;843;52.054;8.552;2023-04-06T08:39:47;9.67;;;8.70;;
1691;SDS011;843;52.054;8.552;2023-04-06T08:42:16;10.60;;;8.50;;
1691;SDS011;843;52.054;8.552;2023-04-06T08:44:46;9.83;;;8.40;;
1691;SDS011;843;52.054;8.552;2023-04-06T08:47:13;11.50;;;8.97;;
1691;SDS011;843;52.054;8.552;2023-04-06T08:49:41;13.90;;;8.13;;
1691;SDS011;843;52.054;8.552;2023-04-06T08:52:10;8.80;;;7.23;;
1691;SDS011;843;52.054;8.552;2023-04-06T08:54:37;11.33;;;7.57;;
1691;SDS011;843;52.054;8.552;2023-04-06T08:57:04;8.43;;;7.43;;
1691;SDS011;843;52.054;8.552;2023-04-06T08:59:31;9.20;;;8.30;;
1691;SDS011;843;52.054;8.552;2023-04-06T09:01:59;9.80;;;8.60;;
1691;SDS011;843;52.054;8.552;2023-04-06T09:04:27;9.17;;;8.27;;
1691;SDS011;843;52.054;8.552;2023-04-06T09:06:55;9.93;;;8.50;;
1691;SDS011;843;52.054;8.552;2023-04-06T09:09:22;10.00;;;8.00;;
1691;SDS011;843;52.054;8.552;2023-04-06T09:11:50;11.23;;;8.80;;
1691;SDS011;843;52.054;8.552;2023-04-06T09:14:32;8.53;;;7.37;;
1691;SDS011;843;52.054;8.552;2023-04-06T09:17:00;9.90;;;8.00;;
1691;SDS011;843;52.054;8.552;2023-04-06T09:19:27;8.70;;;7.50;;
1691;SDS011;843;52.054;8.552;2023-04-06T09:22:02;8.83;;;7.70;;
1691;SDS011;843;52.054;8.552;2023-04-06T09:24:39;9.80;;;8.60;;
1691;SDS011;843;52.054;8.552;2023-04-06T09:27:06;9.93;;;7.80;;
1691;SDS011;843;52.054;8.552;2023-04-06T09:29:33;10.97;;;8.17;;
1691;SDS011;843;52.054;8.552;2023-04-06T09:32:02;8.57;;;7.77;;
1691;SDS011;843;52.054;8.552;2023-04-06T09:34:29;10.67;;;7.47;;
1691;SDS011;843;52.054;8.552;2023-04-06T09:36:56;12.47;;;9.10;;
1691;SDS011;843;52.054;8.552;2023-04-06T09:39:24;12.37;;;8.50;;
1691;SDS011;843;52.054;8.552;2023-04-06T09:41:52;9.47;;;8.47;;
1691;SDS011;843;52.054;8.552;2023-04-06T09:44:19;10.00;;;7.40;;
1691;SDS011;843;52.054;8.552;2023-04-06T09:46:46;9.87;;;8.87;;
1691;SDS011;843;52.054;8.552;2023-04-06T09:49:13;9.90;;;8.13;;
1691;SDS011;843;52.054;8.552;2023-04-06T09:51:41;10.97;;;8.43;;
1691;SDS011;843;52.054;8.552;2023-04-06T09:54:09;10.13;;;9.10;;
1691;SDS011;843;52.054;8.552;2023-04-06T09:56:42;9.80;;;8.70;;
1691;SDS011;843;52.054;8.552;2023-04-06T09:59:13;10.90;;;8.50;;
1691;SDS011;843;52.054;8.552;2023-04-06T10:01:40;9.10;;;8.10;;
1691;SDS011;843;52.054;8.552;2023-04-06T10:04:09;11.03;;;8.60;;
1691;SDS011;843;52.054;8.552;2023-04-06T10:06:42;9.33;;;8.43;;
1691;SDS011;843;52.054;8.552;2023-04-06T10:09:13;11.33;;;9.60;;
1691;SDS011;843;52.054;8.552;2023-04-06T10:11:41;12.13;;;10.80;;
1691;SDS011;843;52.054;8.552;2023-04-06T10:14:08;11.00;;;9.70;;
1691;SDS011;843;52.054;8.552;2023-04-06T10:16:36;9.97;;;9.03;;
1691;SDS011;843;52.054;8.552;2023-04-06T10:19:06;9.83;;;8.83;;
1691;SDS011;843;52.054;8.552;2023-04-06T10:21:39;12.03;;;9.47;;
1691;SDS011;843;52.054;8.552;2023-04-06T10:24:08;10.10;;;8.93;;
1691;SDS011;843;52.054;8.552;2023-04-06T10:26:37;12.50;;;9.50;;
1691;SDS011;843;52.054;8.552;2023-04-06T10:29:05;10.13;;;9.03;;
1691;SDS011;843;52.054;8.552;2023-04-06T10:31:32;10.60;;;9.50;;
1691;SDS011;843;52.054;8.552;2023-04-06T10:33:59;14.80;;;10.13;;
1691;SDS011;843;52.054;8.552;2023-04-06T10:36:27;12.57;;;10.00;;
1691;SDS011;843;52.054;8.552;2023-04-06T10:38:56;10.87;;;9.77;;
1691;SDS011;843;52.054;8.552;2023-04-06T10:41:23;11.50;;;10.00;;
1691;SDS011;843;52.054;8.552;2023-04-06T10:43:54;10.97;;;8.40;;
1691;SDS011;843;52.054;8.552;2023-04-06T10:46:26;12.07;;;10.30;;
1691;SDS011;843;52.054;8.552;2023-04-06T10:48:53;13.47;;;9.53;;
1691;SDS011;843;52.054;8.552;2023-04-06T10:51:24;10.93;;;9.80;;
1691;SDS011;843;52.054;8.552;2023-04-06T10:53:52;12.57;;;8.77;;
1691;SDS011;843;52.054;8.552;2023-04-06T10:56:21;13.30;;;9.30;;
1691;SDS011;843;52.054;8.552;2023-04-06T10:58:51;13.60;;;9.73;;
1691;SDS011;843;52.054;8.552;2023-04-06T11:01:21;12.07;;;8.47;;
1691;SDS011;843;52.054;8.552;2023-04-06T11:03:51;10.40;;;9.07;;
1691;SDS011;843;52.054;8.552;2023-04-06T11:06:19;10.90;;;9.60;;
1691;SDS011;843;52.054;8.552;2023-04-06T11:08:46;12.80;;;9.37;;
1691;SDS011;843;52.054;8.552;2023-04-06T11:11:15;15.40;;;10.30;;
1691;SDS011;843;52.054;8.552;2023-04-06T11:13:44;12.97;;;8.93;;
1691;SDS011;843;52.054;8.552;2023-04-06T11:16:13;11.80;;;10.00;;
1691;SDS011;843;52.054;8.552;2023-04-06T11:18:47;12.87;;;9.67;;
1691;SDS011;843;52.054;8.552;2023-04-06T11:21:16;13.03;;;9.83;;
1691;SDS011;843;52.054;8.552;2023-04-06T11:23:43;10.30;;;9.20;;
1691;SDS011;843;52.054;8.552;2023-04-06T11:26:10;13.10;;;9.40;;
1691;SDS011;843;52.054;8.552;2023-04-06T11:28:38;12.60;;;9.83;;
1691;SDS011;843;52.054;8.552;2023-04-06T11:31:05;11.03;;;9.37;;
1691;SDS011;843;52.054;8.552;2023-04-06T11:33:35;12.40;;;10.60;;
1691;SDS011;843;52.054;8.552;2023-04-06T11:36:04;12.77;;;9.77;;
1691;SDS011;843;52.054;8.552;2023-04-06T11:38:32;10.57;;;8.80;;
1691;SDS011;843;52.054;8.552;2023-04-06T11:40:58;11.50;;;9.53;;
1691;SDS011;843;52.054;8.552;2023-04-06T11:43:27;11.50;;;9.57;;
1691;SDS011;843;52.054;8.552;2023-04-06T11:45:59;13.60;;;10.40;;
1691;SDS011;843;52.054;8.552;2023-04-06T11:48:26;15.77;;;9.90;;
1691;SDS011;843;52.054;8.552;2023-04-06T11:50:55;12.10;;;10.50;;
1691;SDS011;843;52.054;8.552;2023-04-06T11:53:24;13.33;;;9.73;;
1691;SDS011;843;52.054;8.552;2023-04-06T11:55:51;12.57;;;10.57;;
1691;SDS011;843;52.054;8.552;2023-04-06T11:58:17;12.63;;;9.83;;
1691;SDS011;843;52.054;8.552;2023-04-06T12:00:44;12.70;;;10.13;;
1691;SDS011;843;52.054;8.552;2023-04-06T12:03:11;12.23;;;10.00;;
1691;SDS011;843;52.054;8.552;2023-04-06T12:05:38;12.90;;;10.97;;
1691;SDS011;843;52.054;8.552;2023-04-06T12:08:05;16.83;;;11.40;;
1691;SDS011;843;52.054;8.552;2023-04-06T12:10:33;14.37;;;11.20;;
1691;SDS011;843;52.054;8.552;2023-04-06T12:13:00;14.80;;;11.67;;
1691;SDS011;843;52.054;8.552;2023-04-06T12:15:27;14.73;;;11.93;;
1691;SDS011;843;52.054;8.552;2023-04-06T12:17:54;14.97;;;11.43;;
1691;SDS011;843;52.054;8.552;2023-04-06T12:20:21;14.60;;;11.13;;
1691;SDS011;843;52.054;8.552;2023-04-06T12:22:47;12.93;;;10.50;;
1691;SDS011;843;52.054;8.552;2023-04-06T12:25:14;16.53;;;11.63;;
1691;SDS011;843;52.054;8.552;2023-04-06T12:27:42;10.97;;;9.80;;
1691;SDS011;843;52.054;8.552;2023-04-06T12:30:09;13.37;;;10.00;;
1691;SDS011;843;52.054;8.552;2023-04-06T12:32:37;13.43;;;9.67;;
1691;SDS011;843;52.054;8.552;2023-04-06T12:35:04;13.97;;;8.87;;
1691;SDS011;843;52.054;8.552;2023-04-06T12:37:31;10.30;;;7.87;;
1691;SDS011;843;52.054;8.552;2023-04-06T12:39:57;14.10;;;8.77;;
1691;SDS011;843;52.054;8.552;2023-04-06T12:42:25;11.17;;;8.37;;
1691;SDS011;843;52.054;8.552;2023-04-06T12:44:53;11.50;;;8.50;;
1691;SDS011;843;52.054;8.552;2023-04-06T12:47:20;12.70;;;8.90;;
1691;SDS011;843;52.054;8.552;2023-04-06T12:49:47;11.13;;;8.20;;
1691;SDS011;843;52.054;8.552;2023-04-06T12:52:15;10.10;;;8.10;;
1691;SDS011;843;52.054;8.552;2023-04-06T12:54:41;11.03;;;8.30;;
1691;SDS011;843;52.054;8.552;2023-04-06T12:57:08;12.70;;;7.80;;
1691;SDS011;843;52.054;8.552;2023-04-06T12:59:35;10.93;;;8.00;;
1691;SDS011;843;52.054;8.552;2023-04-06T13:02:04;11.90;;;8.37;;
1691;SDS011;843;52.054;8.552;2023-04-06T13:04:31;10.67;;;8.40;;
1691;SDS011;843;52.054;8.552;2023-04-06T13:06:58;16.33;;;9.50;;
1691;SDS011;843;52.054;8.552;2023-04-06T13:09:27;13.80;;;9.07;;
1691;SDS011;843;52.054;8.552;2023-04-06T13:11:53;14.00;;;9.33;;
1691;SDS011;843;52.054;8.552;2023-04-06T13:14:20;11.70;;;8.40;;
1691;SDS011;843;52.054;8.552;2023-04-06T13:16:47;10.57;;;7.30;;
1691;SDS011;843;52.054;8.552;2023-04-06T13:19:15;12.57;;;8.50;;
1691;SDS011;843;52.054;8.552;2023-04-06T13:21:43;12.67;;;8.57;;
1691;SDS011;843;52.054;8.552;2023-04-06T13:24:10;14.27;;;9.07;;
1691;SDS011;843;52.054;8.552;2023-04-06T13:26:37;11.33;;;8.20;;
1691;SDS011;843;52.054;8.552;2023-04-06T13:29:04;12.70;;;9.30;;
1691;SDS011;843;52.054;8.552;2023-04-06T13:31:30;13.07;;;9.57;;
1691;SDS011;843;52.054;8.552;2023-04-06T13:33:57;10.10;;;8.20;;
1691;SDS011;843;52.054;8.552;2023-04-06T13:36:26;12.63;;;8.87;;
1691;SDS011;843;52.054;8.552;2023-04-06T13:38:53;10.63;;;8.60;;
1691;SDS011;843;52.054;8.552;2023-04-06T13:41:20;13.70;;;9.30;;
1691;SDS011;843;52.054;8.552;2023-04-06T13:43:48;13.93;;;10.47;;
1691;SDS011;843;52.054;8.552;2023-04-06T13:46:14;11.67;;;8.43;;
1691;SDS011;843;52.054;8.552;2023-04-06T13:48:41;14.40;;;8.77;;
1691;SDS011;843;52.054;8.552;2023-04-06T13:51:08;12.87;;;8.90;;
1691;SDS011;843;52.054;8.552;2023-04-06T13:53:43;10.90;;;8.10;;
1691;SDS011;843;52.054;8.552;2023-04-06T13:56:10;12.93;;;8.80;;
1691;SDS011;843;52.054;8.552;2023-04-06T13:58:38;12.83;;;8.73;;
1691;SDS011;843;52.054;8.552;2023-04-06T14:01:05;11.10;;;8.70;;
1691;SDS011;843;52.054;8.552;2023-04-06T14:03:36;12.70;;;8.67;;
1691;SDS011;843;52.054;8.552;2023-04-06T14:06:10;14.00;;;9.90;;
1691;SDS011;843;52.054;8.552;2023-04-06T14:08:37;15.50;;;10.87;;
1691;SDS011;843;52.054;8.552;2023-04-06T14:11:06;13.87;;;10.87;;
1691;SDS011;843;52.054;8.552;2023-04-06T14:13:34;14.83;;;10.10;;
1691;SDS011;843;52.054;8.552;2023-04-06T14:16:00;17.40;;;10.50;;
1691;SDS011;843;52.054;8.552;2023-04-06T14:18:27;12.70;;;10.03;;
1691;SDS011;843;52.054;8.552;2023-04-06T14:20:56;13.00;;;10.33;;
1691;SDS011;843;52.054;8.552;2023-04-06T14:23:23;19.20;;;11.97;;
1691;SDS011;843;52.054;8.552;2023-04-06T14:25:51;14.83;;;10.33;;
1691;SDS011;843;52.054;8.552;2023-04-06T14:28:20;18.73;;;11.60;;
1691;SDS011;843;52.054;8.552;2023-04-06T14:30:47;18.70;;;11.87;;
1691;SDS011;843;52.054;8.552;2023-04-06T14:33:13;17.27;;;10.87;;
1691;SDS011;843;52.054;8.552;2023-04-06T14:35:40;18.60;;;12.63;;
1691;SDS011;843;52.054;8.552;2023-04-06T14:38:07;13.10;;;11.23;;
1691;SDS011;843;52.054;8.552;2023-04-06T14:40:35;14.10;;;11.23;;
1691;SDS011;843;52.054;8.552;2023-04-06T14:43:02;13.83;;;10.67;;
1691;SDS011;843;52.054;8.552;2023-04-06T14:45:32;14.60;;;10.63;;
1691;SDS011;843;52.054;8.552;2023-04-06T14:47:59;15.43;;;10.43;;
1691;SDS011;843;52.054;8.552;2023-04-06T14:50:25;14.00;;;10.90;;
1691;SDS011;843;52.054;8.552;2023-04-06T14:52:52;14.60;;;11.03;;
1691;SDS011;843;52.054;8.552;2023-04-06T14:55:19;15.53;;;11.33;;
1691;SDS011;843;52.054;8.552;2023-04-06T14:57:46;15.60;;;12.30;;
1691;SDS011;843;52.054;8.552;2023-04-06T15:00:13;16.57;;;11.77;;
1691;SDS011;843;52.054;8.552;2023-04-06T15:02:42;14.70;;;11.27;;
1691;SDS011;843;52.054;8.552;2023-04-06T15:05:09;17.93;;;12.33;;
1691;SDS011;843;52.054;8.552;2023-04-06T15:07:36;15.90;;;12.60;;
1691;SDS011;843;52.054;8.552;2023-04-06T15:10:03;15.63;;;10.43;;
1691;SDS011;843;52.054;8.552;2023-04-06T15:12:30;15.40;;;11.10;;
1691;SDS011;843;52.054;8.552;2023-04-06T15:14:57;14.40;;;10.50;;
1691;SDS011;843;52.054;8.552;2023-04-06T15:17:25;13.70;;;10.53;;